Time;durP1;ratioP1;P1;durP2;ratioP2;P2;SDS_P1;SDS_P2;PMS_P1;PMS_P2;Temp;Humidity;BMP_temperature;BMP_pressure;BME280_temperature;BME280_humidity;BME280_pressure;Samples;Min_cycle;Max_cycle;Signal;HPM_P1;HPM_P2
2021/01/28 00:01:28;;;;;;;;;;;6.80;99.90;;;;;;5158387;27;20274;-85
2021/01/28 00:04:03;;;;;;;;;;;6.70;99.90;;;;;;5158091;27;20308;-85
2021/01/28 00:06:34;;;;;;;;;;;6.70;99.90;;;;;;5139940;27;20386;-84
2021/01/28 00:09:00;;;;;;;;;;;6.70;99.90;;;;;;5137103;27;19923;-84
2021/01/28 00:11:25;;;;;;;;;;;6.70;99.90;;;;;;5158321;27;20474;-85
2021/01/28 00:13:53;;;;;;;;;;;6.70;99.90;;;;;;5139863;27;20370;-85
2021/01/28 00:16:22;;;;;;;;;;;6.70;99.90;;;;;;5139621;27;19907;-85
2021/01/28 00:18:55;;;;;;;;;;;6.70;99.90;;;;;;5158589;27;19967;-85
2021/01/28 00:21:24;;;;;;;;;;;6.70;99.90;;;;;;5136219;27;20382;-85
2021/01/28 00:23:57;;;;;;;;;;;6.70;99.90;;;;;;5158112;27;19915;-84
2021/01/28 00:26:34;;;;;;;;;;;6.70;99.90;;;;;;5139548;27;19907;-85
2021/01/28 00:29:00;;;;;;;;;;;6.70;99.90;;;;;;5157949;27;19968;-85
2021/01/28 00:31:36;;;;;;;;;;;6.70;99.90;;;;;;5139474;27;19915;-85
2021/01/28 00:34:01;;;;;;;;;;;6.70;99.90;;;;;;5139387;27;19938;-85
2021/01/28 00:36:38;;;;;;;;;;;6.70;99.90;;;;;;5157794;27;19953;-85
2021/01/28 00:39:06;;;;;;;;;;;6.70;99.90;;;;;;5157642;27;19955;-85
2021/01/28 00:41:34;;;;;;;;;;;6.70;99.90;;;;;;5136042;27;19911;-85
2021/01/28 00:44:03;;;;;;;;;;;6.70;99.90;;;;;;5136807;27;20256;-85
2021/01/28 00:46:36;;;;;;;;;;;6.70;99.90;;;;;;5139406;27;19907;-85
2021/01/28 00:49:04;;;;;;;;;;;6.70;99.90;;;;;;5139287;27;19919;-85
2021/01/28 00:51:32;;;;;;;;;;;6.70;99.90;;;;;;5157289;27;20279;-85
2021/01/28 00:54:04;;;;;;;;;;;6.70;99.90;;;;;;5139316;27;19907;-85
2021/01/28 00:56:29;;;;;;;;;;;6.70;99.90;;;;;;5138300;27;20420;-86
2021/01/28 00:59:00;;;;;;;;;;;6.70;99.90;;;;;;5157472;27;19911;-85
2021/01/28 01:01:35;;;;;;;;;;;6.70;99.90;;;;;;5134191;27;19914;-85
2021/01/28 01:04:00;;;;;;;;;;;6.70;99.90;;;;;;5157064;27;19926;-85
2021/01/28 01:06:34;;;;;;;;;;;6.70;99.90;;;;;;5138629;27;19907;-85
2021/01/28 01:09:03;;;;;;;;;;;6.70;99.90;;;;;;5139188;27;19919;-85
2021/01/28 01:11:31;;;;;;;;;;;6.70;99.90;;;;;;5138905;27;19911;-85
2021/01/28 01:13:56;;;;;;;;;;;6.70;99.90;;;;;;5138451;27;19914;-86
2021/01/28 01:16:22;;;;;;;;;;;6.70;99.90;;;;;;5131851;27;19911;-86
2021/01/28 01:18:47;;;;;;;;;;;6.70;99.90;;;;;;5137940;27;19952;-85
2021/01/28 01:21:16;;;;;;;;;;;6.70;99.90;;;;;;5138961;27;20367;-85
2021/01/28 01:23:56;;;;;;;;;;;6.70;99.90;;;;;;5157461;27;19907;-85
2021/01/28 01:26:21;;;;;;;;;;;6.70;99.90;;;;;;5136755;27;19918;-86
2021/01/28 01:28:50;;;;;;;;;;;6.70;99.90;;;;;;5138867;27;19915;-86
2021/01/28 01:31:19;;;;;;;;;;;6.70;99.90;;;;;;5133209;27;20355;-86
2021/01/28 01:33:51;;;;;;;;;;;6.70;99.90;;;;;;5138822;27;19907;-85
2021/01/28 01:36:21;;;;;;;;;;;6.70;99.90;;;;;;5138527;27;20351;-85
2021/01/28 01:38:46;;;;;;;;;;;6.70;99.90;;;;;;5132131;27;19964;-86
2021/01/28 01:41:18;;;;;;;;;;;6.70;99.90;;;;;;5138216;27;20034;-86
2021/01/28 01:43:43;;;;;;;;;;;6.70;99.90;;;;;;5156842;27;20001;-86
2021/01/28 01:46:18;;;;;;;;;;;6.70;99.90;;;;;;5035843;28;20011;-84
2021/01/28 01:48:52;;;;;;;;;;;6.70;99.90;;;;;;5053197;28;19909;-84
2021/01/28 01:51:28;;;;;;;;;;;6.70;99.90;;;;;;5053038;28;20007;-86
2021/01/28 01:53:59;;;;;;;;;;;6.70;99.90;;;;;;5047298;28;20290;-85
2021/01/28 01:56:32;;;;;;;;;;;6.70;99.90;;;;;;5052550;28;20010;-85
2021/01/28 01:59:21;;;;;;;;;;;6.70;99.90;;;;;;5052490;28;19916;-85
2021/01/28 02:01:50;;;;;;;;;;;6.70;99.90;;;;;;5034334;28;19916;-86
2021/01/28 02:04:26;;;;;;;;;;;6.70;99.90;;;;;;5052456;28;19927;-86
2021/01/28 02:06:55;;;;;;;;;;;6.70;99.90;;;;;;5052355;28;19909;-86
2021/01/28 02:09:27;;;;;;;;;;;6.70;99.90;;;;;;5052624;28;19924;-85
2021/01/28 02:11:53;;;;;;;;;;;6.70;99.90;;;;;;5052518;28;19909;-86
2021/01/28 02:14:24;;;;;;;;;;;6.70;99.90;;;;;;5048350;28;19968;-85
2021/01/28 02:16:56;;;;;;;;;;;6.70;99.90;;;;;;5086652;27;19914;-86
2021/01/28 02:19:43;;;;;;;;;;;6.70;99.90;;;;;;5137911;27;19911;-85
2021/01/28 02:22:15;;;;;;;;;;;6.70;99.90;;;;;;5136834;27;19907;-86
2021/01/28 02:24:49;;;;;;;;;;;6.70;99.90;;;;;;5156072;27;19915;-86
2021/01/28 02:27:25;;;;;;;;;;;6.70;99.90;;;;;;5138128;27;19911;-86
2021/01/28 02:29:56;;;;;;;;;;;6.70;99.90;;;;;;5133224;27;19919;-86
2021/01/28 02:32:22;;;;;;;;;;;6.70;99.90;;;;;;5137314;27;19907;-85
2021/01/28 02:34:50;;;;;;;;;;;6.70;99.90;;;;;;5149253;27;20002;-86
2021/01/28 02:37:18;;;;;;;;;;;6.70;99.90;;;;;;5153100;27;19919;-86
2021/01/28 02:39:52;;;;;;;;;;;6.70;99.90;;;;;;5137862;27;19931;-86
2021/01/28 02:42:29;;;;;;;;;;;6.70;99.90;;;;;;5137234;27;19911;-86
2021/01/28 02:44:55;;;;;;;;;;;6.80;99.90;;;;;;5137560;27;19918;-84
2021/01/28 02:47:23;;;;;;;;;;;6.70;99.90;;;;;;5131063;27;19907;-85
2021/01/28 02:49:54;;;;;;;;;;;6.70;99.90;;;;;;5137321;27;20484;-85
2021/01/28 02:52:29;;;;;;;;;;;6.80;99.90;;;;;;5155639;27;19908;-84
2021/01/28 02:54:59;;;;;;;;;;;6.70;99.90;;;;;;5137362;27;19960;-84
2021/01/28 02:57:25;;;;;;;;;;;6.70;99.90;;;;;;5137470;27;19912;-84
2021/01/28 02:59:55;;;;;;;;;;;6.70;99.90;;;;;;5130728;27;19917;-85
2021/01/28 03:02:23;;;;;;;;;;;6.70;99.90;;;;;;5137088;27;19907;-84
2021/01/28 03:04:52;;;;;;;;;;;6.70;99.90;;;;;;5130121;27;19926;-85
2021/01/28 03:07:21;;;;;;;;;;;6.70;99.90;;;;;;5152211;27;19922;-84
2021/01/28 03:09:49;;;;;;;;;;;6.70;99.90;;;;;;5137256;27;19920;-84
2021/01/28 03:12:20;;;;;;;;;;;6.70;99.90;;;;;;5150107;27;19911;-84
2021/01/28 03:14:52;;;;;;;;;;;6.70;99.90;;;;;;5134990;27;20010;-84
2021/01/28 03:17:21;;;;;;;;;;;6.80;99.90;;;;;;5151631;27;19911;-85
2021/01/28 03:19:52;;;;;;;;;;;6.70;99.90;;;;;;5138728;27;19914;-85
2021/01/28 03:22:23;;;;;;;;;;;6.70;99.90;;;;;;5141075;27;19907;-84
2021/01/28 03:24:49;;;;;;;;;;;6.70;99.90;;;;;;5135879;27;20267;-84
2021/01/28 03:27:22;;;;;;;;;;;6.70;99.90;;;;;;5140922;27;19918;-84
2021/01/28 03:29:51;;;;;;;;;;;6.70;99.90;;;;;;5134907;27;19938;-85
2021/01/28 03:32:19;;;;;;;;;;;6.70;99.90;;;;;;5140246;27;19907;-85
2021/01/28 03:34:50;;;;;;;;;;;6.70;99.90;;;;;;5140541;27;19917;-85
2021/01/28 03:37:16;;;;;;;;;;;6.80;99.90;;;;;;5140319;27;19907;-85
2021/01/28 03:39:50;;;;;;;;;;;6.70;99.90;;;;;;5158939;27;19950;-85
2021/01/28 03:42:19;;;;;;;;;;;6.70;99.90;;;;;;5139957;27;19907;-86
2021/01/28 03:44:48;;;;;;;;;;;6.70;99.90;;;;;;5137056;27;19915;-86
2021/01/28 03:47:21;;;;;;;;;;;6.70;99.90;;;;;;5159500;27;19907;-85
2021/01/28 03:49:52;;;;;;;;;;;6.70;99.90;;;;;;5140486;27;19968;-85
2021/01/28 03:52:24;;;;;;;;;;;6.70;99.90;;;;;;5140556;27;19907;-85
2021/01/28 03:54:49;;;;;;;;;;;6.70;99.90;;;;;;5135060;27;20253;-85
2021/01/28 03:57:19;;;;;;;;;;;6.70;99.90;;;;;;5139732;27;19914;-86
2021/01/28 03:59:45;;;;;;;;;;;6.70;99.90;;;;;;5140609;27;20366;-85
2021/01/28 04:02:16;;;;;;;;;;;6.70;99.90;;;;;;5140729;27;19908;-85
2021/01/28 04:04:45;;;;;;;;;;;6.70;99.90;;;;;;5139877;27;19939;-85
2021/01/28 04:07:22;;;;;;;;;;;6.70;99.90;;;;;;5158739;27;19907;-85
2021/01/28 04:09:54;;;;;;;;;;;6.70;99.90;;;;;;5139833;27;19984;-86
2021/01/28 04:12:22;;;;;;;;;;;6.70;99.90;;;;;;5140055;27;19907;-85
2021/01/28 04:14:53;;;;;;;;;;;6.70;99.90;;;;;;5140438;27;19907;-85
2021/01/28 04:17:22;;;;;;;;;;;6.80;99.90;;;;;;5139883;27;19907;-85
2021/01/28 04:19:53;;;;;;;;;;;6.70;99.90;;;;;;5139779;27;19907;-85
2021/01/28 04:22:24;;;;;;;;;;;6.70;99.90;;;;;;5037199;28;20276;-85
2021/01/28 04:24:58;;;;;;;;;;;6.70;99.90;;;;;;5054173;28;19909;-86
2021/01/28 04:27:23;;;;;;;;;;;6.70;99.90;;;;;;5051682;28;19916;-85
2021/01/28 04:29:57;;;;;;;;;;;6.60;99.90;;;;;;5053845;28;19916;-85
2021/01/28 04:32:24;;;;;;;;;;;6.50;99.90;;;;;;5054143;28;19913;-85
2021/01/28 04:34:58;;;;;;;;;;;6.40;99.90;;;;;;5053681;28;19988;-84
2021/01/28 04:37:26;;;;;;;;;;;6.40;99.90;;;;;;5049520;28;19909;-85
2021/01/28 04:39:57;;;;;;;;;;;6.40;99.90;;;;;;5049047;28;19932;-85
2021/01/28 04:42:24;;;;;;;;;;;6.40;99.90;;;;;;5050036;28;19916;-85
2021/01/28 04:44:51;;;;;;;;;;;6.30;99.90;;;;;;5051155;28;19912;-85
2021/01/28 04:47:21;;;;;;;;;;;6.30;99.90;;;;;;5113957;27;20350;-85
2021/01/28 04:49:51;;;;;;;;;;;6.30;99.90;;;;;;5138856;27;19919;-85
2021/01/28 04:52:20;;;;;;;;;;;6.30;99.90;;;;;;5157921;27;20043;-85
2021/01/28 04:54:46;;;;;;;;;;;6.20;99.90;;;;;;5157739;27;19907;-85
2021/01/28 04:57:17;;;;;;;;;;;6.20;99.90;;;;;;5139385;27;20244;-85
2021/01/28 04:59:43;;;;;;;;;;;6.20;99.90;;;;;;5157580;27;19907;-85
2021/01/28 05:02:15;;;;;;;;;;;6.10;99.90;;;;;;5157736;27;20001;-85
2021/01/28 05:04:44;;;;;;;;;;;6.10;99.90;;;;;;5139068;27;19919;-85
2021/01/28 05:07:11;;;;;;;;;;;6.10;99.90;;;;;;5157790;27;19915;-85
2021/01/28 05:09:44;;;;;;;;;;;6.00;99.90;;;;;;5138945;27;19920;-85
2021/01/28 05:12:22;;;;;;;;;;;6.00;99.90;;;;;;5156949;27;19929;-85
2021/01/28 05:14:49;;;;;;;;;;;5.90;99.90;;;;;;5157526;27;20375;-85
2021/01/28 05:17:19;;;;;;;;;;;5.90;99.90;;;;;;5090123;28;19986;-85
2021/01/28 05:20:05;;;;;;;;;;;5.90;99.90;;;;;;5076184;28;19912;-85
2021/01/28 05:22:32;;;;;;;;;;;5.90;99.90;;;;;;5075939;28;19908;-85
2021/01/28 05:25:10;;;;;;;;;;;5.80;99.90;;;;;;5093958;28;19915;-85
2021/01/28 05:27:37;;;;;;;;;;;5.80;99.90;;;;;;5076961;28;19918;-85
2021/01/28 05:30:08;;;;;;;;;;;5.80;99.90;;;;;;5077254;28;19968;-85
2021/01/28 05:32:48;;;;;;;;;;;5.80;99.90;;;;;;5094171;28;20263;-85
2021/01/28 05:35:14;;;;;;;;;;;5.80;99.90;;;;;;5076158;28;19908;-85
2021/01/28 05:37:41;;;;;;;;;;;5.80;99.90;;;;;;5093323;28;19958;-85
2021/01/28 05:40:16;;;;;;;;;;;5.80;99.90;;;;;;5093005;28;19912;-85
2021/01/28 05:42:42;;;;;;;;;;;5.80;99.90;;;;;;5092487;28;19919;-85
2021/01/28 05:45:22;;;;;;;;;;;5.80;99.90;;;;;;5093266;28;20270;-85
2021/01/28 05:47:50;;;;;;;;;;;5.70;99.90;;;;;;5075660;28;20381;-85
2021/01/28 05:50:18;;;;;;;;;;;5.70;99.90;;;;;;5075676;28;19916;-85
2021/01/28 05:52:44;;;;;;;;;;;5.70;99.90;;;;;;5075829;28;19919;-85
2021/01/28 05:55:11;;;;;;;;;;;5.60;99.90;;;;;;5092962;28;19912;-85
2021/01/28 05:57:44;;;;;;;;;;;5.60;99.90;;;;;;5076205;28;19908;-85
2021/01/28 06:00:24;;;;;;;;;;;5.60;99.90;;;;;;5075774;28;19908;-85
2021/01/28 06:03:19;;;;;;;;;;;5.60;99.90;;;;;;5075532;28;20339;-84
2021/01/28 06:06:17;;;;;;;;;;;5.50;99.90;;;;;;5075604;28;19996;-84
2021/01/28 06:09:02;;;;;;;;;;;5.50;99.90;;;;;;5091728;27;20271;-85
2021/01/28 06:11:40;;;;;;;;;;;5.50;99.90;;;;;;5156216;27;20279;-85
2021/01/28 06:14:31;;;;;;;;;;;5.50;99.90;;;;;;5154168;27;20377;-84
2021/01/28 06:17:16;;;;;;;;;;;5.50;99.90;;;;;;5153609;27;20275;-84
2021/01/28 06:20:13;;;;;;;;;;;5.50;99.90;;;;;;5136560;27;19957;-84
2021/01/28 06:22:45;;;;;;;;;;;5.50;99.90;;;;;;5137012;27;20270;-84
2021/01/28 06:25:22;;;;;;;;;;;5.40;99.90;;;;;;5137168;27;20290;-85
2021/01/28 06:27:47;;;;;;;;;;;5.40;99.90;;;;;;5130433;27;19908;-85
2021/01/28 06:30:33;;;;;;;;;;;5.40;99.90;;;;;;5155265;27;19926;-85
2021/01/28 06:33:05;;;;;;;;;;;5.40;99.90;;;;;;5155292;27;19907;-85
2021/01/28 06:35:48;;;;;;;;;;;5.40;99.90;;;;;;5136957;27;19911;-85
2021/01/28 06:38:16;;;;;;;;;;;5.40;99.90;;;;;;5136783;27;19914;-85
2021/01/28 06:40:50;;;;;;;;;;;5.40;99.90;;;;;;5144106;27;20260;-84
2021/01/28 06:43:24;;;;;;;;;;;5.40;99.90;;;;;;5116523;28;20371;-84
2021/01/28 06:45:57;;;;;;;;;;;5.40;99.90;;;;;;5117107;27;19911;-84
2021/01/28 06:48:30;;;;;;;;;;;5.40;99.90;;;;;;5124608;28;20364;-86
2021/01/28 06:51:05;;;;;;;;;;;5.40;99.90;;;;;;5140505;27;19919;-85
2021/01/28 06:53:36;;;;;;;;;;;5.40;99.90;;;;;;5116879;28;20376;-85
2021/01/28 06:56:20;;;;;;;;;;;5.40;99.90;;;;;;5140097;27;19908;-86
2021/01/28 06:58:46;;;;;;;;;;;5.40;99.90;;;;;;5138570;27;19907;-86
2021/01/28 07:01:15;;;;;;;;;;;5.40;99.90;;;;;;5138551;27;19915;-86
2021/01/28 07:03:45;;;;;;;;;;;5.30;99.90;;;;;;5138728;27;20386;-86
2021/01/28 07:06:35;;;;;;;;;;;5.30;99.90;;;;;;5137002;27;19949;-86
2021/01/28 07:09:07;;;;;;;;;;;5.40;99.90;;;;;;5090224;27;19915;-86
2021/01/28 07:11:40;;;;;;;;;;;5.40;99.90;;;;;;5137895;27;19907;-86
2021/01/28 07:14:06;;;;;;;;;;;5.30;99.90;;;;;;5137599;27;20274;-85
2021/01/28 07:16:51;;;;;;;;;;;5.30;99.90;;;;;;5138237;27;19911;-86
2021/01/28 07:19:21;;;;;;;;;;;5.40;99.90;;;;;;5138475;27;19930;-86
2021/01/28 07:21:50;;;;;;;;;;;5.30;99.90;;;;;;5137309;27;20348;-86
2021/01/28 07:24:36;;;;;;;;;;;5.40;99.90;;;;;;5137877;27;20376;-87
2021/01/28 07:27:06;;;;;;;;;;;5.40;99.90;;;;;;5138718;27;20364;-86
2021/01/28 07:29:35;;;;;;;;;;;5.40;99.90;;;;;;5146448;27;19927;-84
2021/01/28 07:32:04;;;;;;;;;;;5.30;99.90;;;;;;5158764;27;19950;-85
2021/01/28 07:34:32;;;;;;;;;;;5.30;99.90;;;;;;5149388;27;19961;-85
2021/01/28 07:37:16;;;;;;;;;;;5.30;99.90;;;;;;5147833;27;19946;-86
2021/01/28 07:39:42;;;;;;;;;;;5.30;99.90;;;;;;5131171;27;20644;-84
2021/01/28 07:42:32;;;;;;;;;;;5.30;99.90;;;;;;5159042;27;19917;-85
2021/01/28 07:44:59;;;;;;;;;;;5.30;99.90;;;;;;5154890;27;20025;-85
2021/01/28 07:47:31;;;;;;;;;;;5.30;99.90;;;;;;5143509;27;19918;-86
2021/01/28 07:50:15;;;;;;;;;;;5.30;99.90;;;;;;5138734;27;19922;-87
2021/01/28 07:52:42;;;;;;;;;;;5.30;99.90;;;;;;5119772;27;19914;-86
2021/01/28 07:55:31;;;;;;;;;;;5.30;99.90;;;;;;5159459;27;19932;-85
2021/01/28 07:57:56;;;;;;;;;;;5.30;99.90;;;;;;5147240;27;19906;-86
2021/01/28 08:00:35;;;;;;;;;;;5.30;99.90;;;;;;5144660;27;19907;-85
2021/01/28 08:03:03;;;;;;;;;;;5.30;99.90;;;;;;5151005;27;19985;-85
2021/01/28 08:05:29;;;;;;;;;;;5.30;99.90;;;;;;5125177;27;19907;-86
2021/01/28 08:08:06;;;;;;;;;;;5.30;99.90;;;;;;5121803;27;19911;-87
2021/01/28 08:10:39;;;;;;;;;;;5.30;99.90;;;;;;5122057;27;19915;-86
2021/01/28 08:13:20;;;;;;;;;;;5.30;99.90;;;;;;5119400;27;20184;-85
2021/01/28 08:15:49;;;;;;;;;;;5.30;99.90;;;;;;5119906;27;19908;-85
2021/01/28 08:18:20;;;;;;;;;;;5.30;99.90;;;;;;5119448;27;19998;-85
2021/01/28 08:20:46;;;;;;;;;;;5.30;99.90;;;;;;5119660;27;19915;-84
2021/01/28 08:23:27;;;;;;;;;;;5.30;99.90;;;;;;5118756;27;19907;-85
2021/01/28 08:25:55;;;;;;;;;;;5.30;99.90;;;;;;5137159;27;19930;-85
2021/01/28 08:28:20;;;;;;;;;;;5.30;99.90;;;;;;5118730;27;20359;-85
2021/01/28 08:30:46;;;;;;;;;;;5.30;99.90;;;;;;5118802;27;19923;-85
2021/01/28 08:33:22;;;;;;;;;;;5.30;99.90;;;;;;5118248;27;19947;-85
2021/01/28 08:35:56;;;;;;;;;;;5.30;99.90;;;;;;5138470;27;19994;-85
2021/01/28 08:38:30;;;;;;;;;;;5.30;99.90;;;;;;5139505;27;20274;-85
2021/01/28 08:41:00;;;;;;;;;;;5.30;99.90;;;;;;5151770;27;19915;-86
2021/01/28 08:43:37;;;;;;;;;;;5.30;99.90;;;;;;5139132;27;19934;-86
2021/01/28 08:46:06;;;;;;;;;;;5.30;99.90;;;;;;5131873;27;19918;-85
2021/01/28 08:48:33;;;;;;;;;;;5.30;99.90;;;;;;5158121;27;19914;-86
2021/01/28 08:51:04;;;;;;;;;;;5.30;99.90;;;;;;5157644;27;19960;-86
2021/01/28 08:53:31;;;;;;;;;;;5.40;99.90;;;;;;5136836;27;19960;-85
2021/01/28 08:56:13;;;;;;;;;;;5.30;99.90;;;;;;5139381;27;19907;-86
2021/01/28 08:58:41;;;;;;;;;;;5.40;99.90;;;;;;5139134;27;19906;-85
2021/01/28 09:01:07;;;;;;;;;;;5.40;99.90;;;;;;5138651;27;19994;-85
2021/01/28 09:03:35;;;;;;;;;;;5.40;99.90;;;;;;5144670;27;20363;-85
2021/01/28 09:06:04;;;;;;;;;;;5.40;99.90;;;;;;5160269;27;19918;-85
2021/01/28 09:08:38;;;;;;;;;;;5.40;99.90;;;;;;5159994;27;20267;-85
2021/01/28 09:11:08;;;;;;;;;;;5.40;99.90;;;;;;5149333;27;20337;-85
2021/01/28 09:13:34;;;;;;;;;;;5.40;99.90;;;;;;5140987;27;20363;-85
2021/01/28 09:16:09;;;;;;;;;;;5.50;99.90;;;;;;5143159;27;19959;-85
2021/01/28 09:18:36;;;;;;;;;;;5.50;99.90;;;;;;5157974;27;20040;-87
2021/01/28 09:21:09;;;;;;;;;;;5.50;99.90;;;;;;5177980;27;20385;-85
2021/01/28 09:23:34;;;;;;;;;;;5.50;99.90;;;;;;5138546;27;19911;-86
2021/01/28 09:26:19;;;;;;;;;;;5.50;99.90;;;;;;5128411;27;19919;-86
2021/01/28 09:28:45;;;;;;;;;;;5.50;99.90;;;;;;5142826;27;19912;-85
2021/01/28 09:31:38;;;;;;;;;;;5.50;99.90;;;;;;5123913;27;19919;-86
2021/01/28 09:34:15;;;;;;;;;;;5.50;99.90;;;;;;5119686;27;20048;-85
2021/01/28 09:36:41;;;;;;;;;;;5.50;99.90;;;;;;5117737;27;20412;-85
2021/01/28 09:39:06;;;;;;;;;;;5.50;99.90;;;;;;5122405;27;19991;-85
2021/01/28 09:41:43;;;;;;;;;;;5.50;99.90;;;;;;5138449;27;19915;-85
2021/01/28 09:44:34;;;;;;;;;;;5.50;99.90;;;;;;5137704;27;20325;-87
2021/01/28 09:47:04;;;;;;;;;;;5.60;99.90;;;;;;5138815;27;19907;-86
2021/01/28 09:49:30;;;;;;;;;;;5.60;99.90;;;;;;5138993;27;20009;-86
2021/01/28 09:51:59;;;;;;;;;;;5.60;99.90;;;;;;5138292;27;20337;-86
2021/01/28 09:54:25;;;;;;;;;;;5.60;99.90;;;;;;5156539;27;19964;-86
2021/01/28 09:56:51;;;;;;;;;;;5.60;99.90;;;;;;5137952;27;20300;-87
2021/01/28 09:59:17;;;;;;;;;;;5.60;99.90;;;;;;5134530;27;19912;-87
2021/01/28 10:01:43;;;;;;;;;;;5.60;99.90;;;;;;5138072;27;19957;-87
2021/01/28 10:04:12;;;;;;;;;;;5.60;99.90;;;;;;5156123;27;19919;-86
2021/01/28 10:06:41;;;;;;;;;;;5.60;99.90;;;;;;5156197;27;19908;-85
2021/01/28 10:09:07;;;;;;;;;;;5.70;99.90;;;;;;5136248;27;20315;-87
2021/01/28 10:11:36;;;;;;;;;;;5.70;99.90;;;;;;5134561;27;19911;-86
2021/01/28 10:14:05;;;;;;;;;;;5.70;99.90;;;;;;5137422;27;19914;-87
2021/01/28 10:16:31;;;;;;;;;;;5.70;99.90;;;;;;5137527;27;20235;-87
2021/01/28 10:18:57;;;;;;;;;;;5.70;99.90;;;;;;5137628;27;19926;-87
2021/01/28 10:21:25;;;;;;;;;;;5.70;99.90;;;;;;5137990;27;19908;-85
2021/01/28 10:23:51;;;;;;;;;;;5.70;99.90;;;;;;5155962;27;19907;-87
2021/01/28 10:26:24;;;;;;;;;;;5.70;99.90;;;;;;5136709;27;19908;-85
2021/01/28 10:28:49;;;;;;;;;;;5.70;99.90;;;;;;5137095;27;19907;-85
2021/01/28 10:31:17;;;;;;;;;;;5.80;99.90;;;;;;5137640;27;19911;-85
2021/01/28 10:33:45;;;;;;;;;;;5.70;99.90;;;;;;5155863;27;20002;-85
2021/01/28 10:36:16;;;;;;;;;;;5.80;99.90;;;;;;5134163;27;20336;-86
2021/01/28 10:38:49;;;;;;;;;;;5.70;99.90;;;;;;5122194;28;19925;-86
2021/01/28 10:41:17;;;;;;;;;;;5.80;99.90;;;;;;5113680;28;19908;-87
2021/01/28 10:43:48;;;;;;;;;;;5.80;99.90;;;;;;5114745;28;20372;-87
2021/01/28 10:46:13;;;;;;;;;;;5.80;99.90;;;;;;5118688;28;19977;-86
2021/01/28 10:48:39;;;;;;;;;;;5.80;99.90;;;;;;5128364;28;19907;-86
2021/01/28 10:51:07;;;;;;;;;;;5.90;99.90;;;;;;5135810;28;20299;-85
2021/01/28 10:53:35;;;;;;;;;;;5.80;99.90;;;;;;5131834;27;20450;-87
2021/01/28 10:56:12;;;;;;;;;;;5.80;99.90;;;;;;5155642;27;20374;-87
2021/01/28 10:58:38;;;;;;;;;;;5.90;99.90;;;;;;5121046;28;20011;-87
2021/01/28 11:01:04;;;;;;;;;;;5.80;99.90;;;;;;5118120;28;20348;-87
2021/01/28 11:03:30;;;;;;;;;;;5.80;99.90;;;;;;5135472;28;20355;-86
2021/01/28 11:05:58;;;;;;;;;;;5.90;99.90;;;;;;5116591;28;19911;-86
2021/01/28 11:08:27;;;;;;;;;;;5.80;99.90;;;;;;5116994;28;19930;-86
2021/01/28 11:10:53;;;;;;;;;;;5.80;99.90;;;;;;5116476;28;20253;-85
2021/01/28 11:13:20;;;;;;;;;;;5.90;99.90;;;;;;5117502;28;19922;-86
2021/01/28 11:15:45;;;;;;;;;;;5.80;99.90;;;;;;5135340;28;19916;-87
2021/01/28 11:18:11;;;;;;;;;;;5.80;99.90;;;;;;5135638;28;19907;-87
2021/01/28 11:20:37;;;;;;;;;;;5.80;99.90;;;;;;5117290;28;19912;-87
2021/01/28 11:23:03;;;;;;;;;;;5.80;99.90;;;;;;5134247;28;19937;-87
2021/01/28 11:25:29;;;;;;;;;;;5.90;99.90;;;;;;5136584;28;19919;-87
2021/01/28 11:27:55;;;;;;;;;;;5.90;99.90;;;;;;5136617;28;20261;-88
2021/01/28 11:30:28;;;;;;;;;;;5.80;99.90;;;;;;5117469;28;19922;-88
2021/01/28 11:32:53;;;;;;;;;;;5.90;99.90;;;;;;5113563;28;19907;-87
2021/01/28 11:35:22;;;;;;;;;;;5.90;99.90;;;;;;5116592;28;19915;-88
2021/01/28 11:37:48;;;;;;;;;;;5.90;99.90;;;;;;5116638;28;19907;-87
2021/01/28 11:40:17;;;;;;;;;;;5.90;99.90;;;;;;5135957;27;19908;-87
2021/01/28 11:42:52;;;;;;;;;;;5.90;99.90;;;;;;5119989;27;19914;-87
2021/01/28 11:45:20;;;;;;;;;;;5.90;99.90;;;;;;5135343;27;19907;-87
2021/01/28 11:47:46;;;;;;;;;;;5.90;99.90;;;;;;5119836;27;19973;-87
2021/01/28 11:50:12;;;;;;;;;;;6.00;99.90;;;;;;5122391;27;20379;-86
2021/01/28 11:52:37;;;;;;;;;;;6.00;99.90;;;;;;5133512;27;19918;-86
2021/01/28 11:55:05;;;;;;;;;;;6.00;99.90;;;;;;5124610;27;19907;-87
2021/01/28 11:57:31;;;;;;;;;;;6.10;99.90;;;;;;5145643;27;20367;-86
2021/01/28 11:59:56;;;;;;;;;;;6.10;99.90;;;;;;5127818;27;20018;-85
2021/01/28 12:02:22;;;;;;;;;;;6.10;99.90;;;;;;5126119;27;19957;-87
2021/01/28 12:04:47;;;;;;;;;;;6.10;99.90;;;;;;5124839;27;19926;-86
2021/01/28 12:07:17;;;;;;;;;;;6.10;99.90;;;;;;5117329;27;19917;-86
2021/01/28 12:09:46;;;;;;;;;;;6.20;99.90;;;;;;5151469;27;19959;-87
2021/01/28 12:12:17;;;;;;;;;;;6.20;99.90;;;;;;5159349;27;19942;-84
2021/01/28 12:14:48;;;;;;;;;;;6.20;99.90;;;;;;5134452;27;20006;-84
2021/01/28 12:17:16;;;;;;;;;;;6.20;99.90;;;;;;5140048;27;20364;-84
2021/01/28 12:19:47;;;;;;;;;;;6.20;99.90;;;;;;5140307;27;20325;-85
2021/01/28 12:22:15;;;;;;;;;;;6.20;99.90;;;;;;5140613;27;19907;-86
2021/01/28 12:24:46;;;;;;;;;;;6.20;99.90;;;;;;5153008;27;19907;-86
2021/01/28 12:27:19;;;;;;;;;;;6.10;99.90;;;;;;5155728;27;19915;-86
2021/01/28 12:29:47;;;;;;;;;;;6.10;99.90;;;;;;5139845;27;19915;-87
2021/01/28 12:32:18;;;;;;;;;;;6.10;99.90;;;;;;5139907;27;20002;-87
2021/01/28 12:34:45;;;;;;;;;;;6.10;99.90;;;;;;5094289;28;19915;-87
2021/01/28 12:37:13;;;;;;;;;;;6.00;99.90;;;;;;5098146;28;19916;-85
2021/01/28 12:39:42;;;;;;;;;;;6.10;99.90;;;;;;5084208;28;19908;-86
2021/01/28 12:42:08;;;;;;;;;;;6.10;99.90;;;;;;5076337;28;19984;-87
2021/01/28 12:44:37;;;;;;;;;;;6.10;99.90;;;;;;5095244;28;20007;-87
2021/01/28 12:47:05;;;;;;;;;;;6.10;99.90;;;;;;5094350;28;20331;-88
2021/01/28 12:49:34;;;;;;;;;;;6.20;99.90;;;;;;5077173;28;19939;-86
2021/01/28 12:52:02;;;;;;;;;;;6.20;99.90;;;;;;5075970;28;19970;-87
2021/01/28 12:54:27;;;;;;;;;;;6.20;99.90;;;;;;5076897;28;20319;-88
2021/01/28 12:56:55;;;;;;;;;;;6.20;99.90;;;;;;5077485;28;19908;-86
2021/01/28 12:59:24;;;;;;;;;;;6.20;99.90;;;;;;5098904;27;20422;-86
2021/01/28 13:01:52;;;;;;;;;;;6.20;99.90;;;;;;5118704;27;19907;-86
2021/01/28 13:04:21;;;;;;;;;;;6.20;99.90;;;;;;5138457;27;20348;-86
2021/01/28 13:06:46;;;;;;;;;;;6.20;99.90;;;;;;5076792;28;19912;-87
2021/01/28 13:09:12;;;;;;;;;;;6.10;99.90;;;;;;5084662;28;20439;-85
2021/01/28 13:11:38;;;;;;;;;;;6.10;99.90;;;;;;5079826;28;19912;-86
2021/01/28 13:14:03;;;;;;;;;;;6.10;99.90;;;;;;5075676;28;19955;-84
2021/01/28 13:16:29;;;;;;;;;;;6.10;99.90;;;;;;5096224;28;19941;-85
2021/01/28 13:18:56;;;;;;;;;;;6.10;99.90;;;;;;5110029;28;20404;-85
2021/01/28 13:21:22;;;;;;;;;;;6.10;99.90;;;;;;5095283;28;19919;-86
2021/01/28 13:23:48;;;;;;;;;;;6.10;99.90;;;;;;5095349;28;20007;-86
2021/01/28 13:26:13;;;;;;;;;;;6.10;99.90;;;;;;5096427;28;19924;-86
2021/01/28 13:28:39;;;;;;;;;;;6.10;99.90;;;;;;5096213;28;19916;-87
2021/01/28 13:31:07;;;;;;;;;;;6.00;99.90;;;;;;5096142;28;20372;-87
2021/01/28 13:33:37;;;;;;;;;;;6.00;99.90;;;;;;5113487;28;19908;-86
2021/01/28 13:36:06;;;;;;;;;;;6.00;99.90;;;;;;5096199;28;19908;-87
2021/01/28 13:38:39;;;;;;;;;;;6.00;99.90;;;;;;5127340;27;19943;-86
2021/01/28 13:41:05;;;;;;;;;;;5.90;99.90;;;;;;5116296;27;20351;-87
2021/01/28 13:43:30;;;;;;;;;;;6.00;99.90;;;;;;5135047;27;19960;-85
2021/01/28 13:46:00;;;;;;;;;;;5.90;99.90;;;;;;5138175;27;19911;-85
2021/01/28 13:48:26;;;;;;;;;;;5.90;99.90;;;;;;5115990;27;20445;-85
2021/01/28 13:50:51;;;;;;;;;;;5.90;99.90;;;;;;5129048;27;20027;-86
2021/01/28 13:53:18;;;;;;;;;;;5.90;99.90;;;;;;5115473;27;19966;-87
2021/01/28 13:55:43;;;;;;;;;;;5.90;99.90;;;;;;5117206;27;19911;-86
2021/01/28 13:58:09;;;;;;;;;;;5.80;99.90;;;;;;5134588;27;19907;-88
2021/01/28 14:00:34;;;;;;;;;;;5.80;99.90;;;;;;5117485;27;19915;-87
2021/01/28 14:03:06;;;;;;;;;;;5.80;99.90;;;;;;5099171;27;19907;-86
2021/01/28 14:05:31;;;;;;;;;;;5.80;99.90;;;;;;5135699;27;19920;-86
2021/01/28 14:07:59;;;;;;;;;;;5.80;99.90;;;;;;5134413;27;19913;-86
2021/01/28 14:10:26;;;;;;;;;;;5.80;99.90;;;;;;5139223;27;20008;-85
2021/01/28 14:12:52;;;;;;;;;;;5.80;99.90;;;;;;5136110;27;19907;-86
2021/01/28 14:15:18;;;;;;;;;;;5.90;99.90;;;;;;5154519;27;19907;-86
2021/01/28 14:17:47;;;;;;;;;;;5.80;99.90;;;;;;5136774;27;19929;-86
2021/01/28 14:20:16;;;;;;;;;;;5.90;99.90;;;;;;5124974;28;19933;-86
2021/01/28 14:22:55;;;;;;;;;;;5.90;99.90;;;;;;5140867;27;19953;-87
2021/01/28 14:25:23;;;;;;;;;;;5.90;99.90;;;;;;5119773;28;19911;-86
2021/01/28 14:27:52;;;;;;;;;;;5.90;99.90;;;;;;5117807;27;19919;-85
2021/01/28 14:30:21;;;;;;;;;;;5.90;99.90;;;;;;5117421;27;19916;-86
2021/01/28 14:32:50;;;;;;;;;;;5.90;99.90;;;;;;5117329;28;19914;-86
2021/01/28 14:35:19;;;;;;;;;;;5.90;99.90;;;;;;5118330;28;20279;-86
2021/01/28 14:37:56;;;;;;;;;;;5.80;99.90;;;;;;5150144;27;19911;-86
2021/01/28 14:40:23;;;;;;;;;;;5.80;99.90;;;;;;5147687;27;19912;-86
2021/01/28 14:42:53;;;;;;;;;;;5.70;99.90;;;;;;5134393;28;19908;-85
2021/01/28 14:45:25;;;;;;;;;;;5.70;99.90;;;;;;5140574;27;19921;-86
2021/01/28 14:47:54;;;;;;;;;;;5.60;99.90;;;;;;5158083;27;19911;-87
2021/01/28 14:50:22;;;;;;;;;;;5.60;99.90;;;;;;5145448;27;19919;-87